Hestrud (Nord, France) - 208 m
Donnes mto: Actuelle samedi, 18/09/2021 11:29
Date Horaire Temp Out Serre Temp. E. min Temp. E. max Temp. Sol 1 Hum Out Hum. Sol 1 Press Rain Wind Dir Dir Solar Ev.Tr. UV Hi Solar Rad Dew Point Windchill Wind (Gust)
18/09/2021 11:29 19,0 C 26,7 C 18,9 C 19,0 C 21,1 C 75 % 105 cb 1016,1 hPa 0,0 mm 0,0 km/h (0 Bft) - - 0 60 min 0,178 mm 2,4 UV-I 436 W/m 14,5 C 19,0 C 0,0 km/h (0 Bft)
18/09/2021 10:29 14,9 C 22,8 C 14,9 C 14,9 C 18,9 C 99 % 107 cb 1016,1 hPa 0,0 mm 0,0 km/h (0 Bft) - - 0 60 min 0,102 mm 1,5 UV-I 310 W/m 14,7 C 14,9 C 0,0 km/h (0 Bft)
18/09/2021 09:29 11,3 C 16,1 C 11,3 C 11,3 C 13,3 C 99 % 99 cb 1016,1 hPa 0,0 mm 0,0 km/h (0 Bft) - - 0 30 min 0,025 mm 0,6 UV-I 244 W/m 11,1 C 11,3 C 0,0 km/h (0 Bft)
18/09/2021 08:29 8,3 C 12,8 C 8,2 C 8,3 C 8,9 C 98 % 92 cb 1015,9 hPa 0,0 mm 0,0 km/h (0 Bft) - - 0 0 min 0,000 mm 0,0 UV-I 33 W/m 8,0 C 8,3 C 0,0 km/h (0 Bft)
18/09/2021 07:29 7,6 C 10,0 C 7,6 C 7,6 C 7,2 C 97 % 88 cb 1015,5 hPa 0,0 mm 0,0 km/h (0 Bft) - - 0 0 min 0,000 mm 0,0 UV-I 7 W/m 7,2 C 7,6 C 0,0 km/h (0 Bft)
18/09/2021 06:29 7,9 C 10,0 C 7,9 C 7,9 C 7,2 C 97 % 87 cb 1015,3 hPa 0,0 mm 0,0 km/h (0 Bft) - - 0 0 min 0,000 mm 0,0 UV-I 0 W/m 7,5 C 7,9 C 0,0 km/h (0 Bft)
18/09/2021 05:29 7,9 C 10,0 C 7,9 C 7,9 C 7,8 C 97 % 87 cb 1015,2 hPa 0,2 mm 0,0 km/h (0 Bft) - - 0 0 min 0,000 mm 0,0 UV-I 0 W/m 7,5 C 7,9 C 0,0 km/h (0 Bft)
18/09/2021 04:29 8,2 C 10,6 C 8,2 C 8,2 C 7,8 C 96 % 89 cb 1015,4 hPa 0,0 mm 0,0 km/h (0 Bft) - - 0 0 min 0,000 mm 0,0 UV-I 0 W/m 7,6 C 8,2 C 0,0 km/h (0 Bft)
18/09/2021 03:29 8,7 C 10,6 C 8,7 C 8,7 C 8,3 C 96 % 95 cb 1015,6 hPa 0,0 mm 0,0 km/h (0 Bft) - - 0 0 min 0,000 mm 0,0 UV-I 0 W/m 8,1 C 8,7 C 0,0 km/h (0 Bft)
18/09/2021 02:29 9,2 C 11,7 C 9,2 C 9,2 C 8,9 C 96 % 104 cb 1015,7 hPa 0,0 mm 0,0 km/h (0 Bft) - - 0 0 min 0,000 mm 0,0 UV-I 0 W/m 8,6 C 9,2 C 0,0 km/h (0 Bft)
18/09/2021 01:29 9,8 C 11,7 C 9,8 C 9,8 C 8,9 C 95 % 104 cb 1015,7 hPa 0,0 mm 0,0 km/h (0 Bft) - - 0 0 min 0,000 mm 0,0 UV-I 0 W/m 9,0 C 9,8 C 0,0 km/h (0 Bft)
18/09/2021 00:29 10,4 C 12,2 C 10,4 C 10,4 C 10,0 C 95 % 104 cb 1015,7 hPa 0,0 mm 0,0 km/h (0 Bft) - - 0 0 min 0,000 mm 0,0 UV-I 0 W/m 9,6 C 10,4 C 0,0 km/h (0 Bft)
17/09/2021 23:29 11,2 C 13,3 C 11,2 C 11,2 C 10,6 C 95 % 102 cb 1015,7 hPa 0,0 mm 0,0 km/h (0 Bft) - - 0 0 min 0,000 mm 0,0 UV-I 0 W/m 10,4 C 11,2 C 0,0 km/h (0 Bft)
17/09/2021 22:29 12,0 C 13,9 C 12,0 C 12,0 C 11,1 C 93 % 100 cb 1015,4 hPa 0,0 mm 0,0 km/h (0 Bft) - - 0 0 min 0,000 mm 0,0 UV-I 0 W/m 10,9 C 12,0 C 0,0 km/h (0 Bft)
17/09/2021 21:29 13,2 C 15,0 C 13,2 C 13,3 C 12,2 C 90 % 99 cb 1015,3 hPa 0,0 mm 0,0 km/h (0 Bft) - - 0 0 min 0,000 mm 0,0 UV-I 0 W/m 11,6 C 13,2 C 0,0 km/h (0 Bft)
17/09/2021 20:29 15,2 C 16,1 C 15,2 C 15,2 C 13,3 C 87 % 98 cb 1014,7 hPa 0,0 mm 0,0 km/h (0 Bft) - - 0 0 min 0,000 mm 0,0 UV-I 0 W/m 13,0 C 15,2 C 0,0 km/h (0 Bft)
17/09/2021 19:29 18,3 C 18,9 C 18,3 C 18,4 C 16,1 C 80 % 100 cb 1014,4 hPa 0,0 mm 0,0 km/h (0 Bft) - - 0 0 min 0,076 mm 0,0 UV-I 18 W/m 14,8 C 18,3 C 0,0 km/h (0 Bft)
17/09/2021 18:29 20,4 C 23,9 C 20,4 C 20,4 C 18,3 C 70 % 101 cb 1014,6 hPa 0,0 mm 0,0 km/h (0 Bft) - - 0 53 min 0,152 mm 0,0 UV-I 130 W/m 14,7 C 20,4 C 0,0 km/h (0 Bft)
17/09/2021 17:29 20,3 C 40,0 C 20,3 C 20,3 C 19,4 C 74 % 100 cb 1014,8 hPa 0,0 mm 0,0 km/h (0 Bft) - - 0 60 min 0,254 mm 0,9 UV-I 289 W/m 15,5 C 20,3 C 0,0 km/h (0 Bft)
17/09/2021 16:29 20,8 C 40,0 C 20,8 C 20,8 C 20,6 C 73 % 100 cb 1015,1 hPa 0,0 mm 0,0 km/h (0 Bft) - - 0 60 min 0,203 mm 1,7 UV-I 399 W/m 15,8 C 20,8 C 0,0 km/h (0 Bft)
17/09/2021 15:29 21,3 C 32,8 C 21,3 C 21,3 C 20,0 C 62 % 98 cb 1015,5 hPa 0,0 mm 0,0 km/h (0 Bft) - - 0 60 min 0,330 mm 1,8 UV-I 299 W/m 13,7 C 21,3 C 0,0 km/h (0 Bft)
17/09/2021 14:29 20,2 C 32,8 C 20,2 C 20,2 C 20,0 C 71 % 97 cb 1015,7 hPa 0,0 mm 0,0 km/h (0 Bft) - - 0 60 min 0,127 mm 2,9 UV-I 374 W/m 14,8 C 20,2 C 0,0 km/h (0 Bft)
17/09/2021 13:29 19,3 C 26,7 C 19,3 C 19,3 C 18,9 C 76 % 94 cb 1016,0 hPa 0,0 mm 0,0 km/h (0 Bft) - - 0 44 min 0,203 mm 1,6 UV-I 227 W/m 15,0 C 19,3 C 0,0 km/h (0 Bft)
17/09/2021 12:29 19,3 C 25,6 C 19,3 C 19,3 C 18,9 C 78 % 95 cb 1016,4 hPa 0,0 mm 0,0 km/h (0 Bft) - - 0 27 min 0,254 mm 1,8 UV-I 169 W/m 15,4 C 19,3 C 0,0 km/h (0 Bft)
17/09/2021 12:00 19,3 C 29,4 C 19,3 C 19,3 C 20,0 C 81 % 98 cb 1016,5 hPa 0,0 mm 0,0 km/h (0 Bft) - - 0 0 min 0,254 mm 2,7 UV-I 517 W/m 16,0 C 19,3 C 0,0 km/h (0 Bft)
_ Min-Heure 07:45 05:02 07:45 07:48 05:36 15:11 05:22 19:32 - 12:00 - - - - - - 07:46 07:46 12:00
Minimum _ 7,4 C 10,0 C 7,4 C 7,4 C 7,2 C 60 % 87 cb 1014,3 hPa - 0,0 km/h (0 Bft) - - - - - - 7,0 C 7,4 C 0,0 km/h (0 Bft)
_ Max-Heure 15:07 14:51 15:04 15:07 14:45 08:51 10:37 12:07 04:31 12:00 - - 12:00 15:00 14:36 14:56 16:34 15:07 12:00
Maximum _ 22,2 C 45,0 C 22,1 C 22,2 C 21,7 C 99 % 108 cb 1016,6 hPa 0,2 mm 0,0 km/h
- - (0 Bft)
- - 1 min 0,330 mm 3,5 UV-I 812 W/m 16,3 C 22,2 C 0,0 km/h
- - (0 Bft)
Moyenne _ 14,3 C 20,2 C 14,3 C 14,3 C 14,0 C 87 % 98 cb 1015,6 hPa #0,2 mm 0,0 km/h (0 Bft) - - - #2:30 h #0,305 mm 1,3 UV-I 73 W/m 11,9 C 14,3 C 0,0 km/h (0 Bft)